Contact Us:
Email: info@sawbill.com
Phone: (218)663-7150
Fax: (218)663-7980
Mail: 4620 Sawbill Trail
Box 2129
Tofte, MN 55615


Powered by
Movable Type 3.15
 
Sawbill Weather History Archives: October 2013
Current Sawbill Weather History | « September 2013 | November 2013 »


Date

High
Temperature

Low
Temperature

Barometric
Pressure

Relative
Humidity 7AM

9 AM
Temperature

Moisture

Snow

10/31/13 43 37 29.74 91% 37 Trace
10/30/13 39 30 29.76 97% 39 .2"
10/29/13 35 16 30.06 77% 30 0
10/28/13 33 16 30.30 64% 16 0
10/27/13 39 22 30.30 63% 22 Trace Trace
10/26/13 37 22 30.10 79% 33 0
10/25/13 40 30 29.92 89% 31 .06" Trace
10/24/13 36 30 30.08 80% 31 Trace Trace
10/23/13 31 26 30.02 79% 30 Trace Trace
10/22/13 33 27 29.92 75% 27 Trace Trace
10/21/13 33 28 29.90 77% 29 .2" 2.5"
10/20/13 40 29 29.81 79% 29 .38" Trace
10/19/13 40 32 29.82 89% 32 .05" Trace
10/18/13 44 31 29.82 83% 33 0
10/17/13 44 37 29.88 91% 37 .26"
10/16/13 48 32 29.88 83% 39 Trace
10/15/13 43 37 29.92 76% 37 .34"
10/14/13 49 31 30.02 91% 43 .18"
10/13/13 51 31 30.26 72% 31 0
10/12/13 57 40 30.14 83% 40 .06"
10/11/13 68 44 29.85 82% 55 0
10/10/13 68 52 29.92 76% 52 0
10/9/13 70 52 30.00 80% 52 0
10/8/13 61 34 30.02 77% 49 0
10/7/13 53 34 30.00 83% 34 0
10/6/13 47 39 29.87 95% 41 0
10/5/13 45 42 29.86 98% 45 .65"
10/4/13 55 43 30.02 93% 43 .47"
10/3/13 60 45 30.12 84% 49 .14"
10/2/13 64 47 30.02 77% 47 .04"
10/1/13 66 47 29.98 86% 47 0
 


Home I Trip Planning I Rentals and Outfitting I Reservations I Campgrounds I Sawbill Store I Sawbill News I Contact

© 1997 - 2017, Sawbill Canoe Outfitters, Inc. I Privacy Policy